sensor_id;sensor_type;location;lat;lon;timestamp;pressure;altitude;pressure_sealevel;temperature;humidity
73566;BME280;61846;52.970;-3.168;2023-05-07T00:01:32;100405.03;;;18.25;44.17
73566;BME280;61846;52.970;-3.168;2023-05-07T00:03:57;100403.70;;;18.36;44.16
73566;BME280;61846;52.970;-3.168;2023-05-07T00:06:23;100403.32;;;17.66;44.95
73566;BME280;61846;52.970;-3.168;2023-05-07T00:08:47;100402.91;;;18.19;44.32
73566;BME280;61846;52.970;-3.168;2023-05-07T00:11:13;100403.49;;;18.27;44.18
73566;BME280;61846;52.970;-3.168;2023-05-07T00:13:38;100402.86;;;18.03;45.24
73566;BME280;61846;52.970;-3.168;2023-05-07T00:16:04;100404.72;;;17.59;45.84
73566;BME280;61846;52.970;-3.168;2023-05-07T00:18:29;100404.83;;;17.48;46.77
73566;BME280;61846;52.970;-3.168;2023-05-07T00:20:54;100407.18;;;17.16;46.90
73566;BME280;61846;52.970;-3.168;2023-05-07T00:23:19;100411.59;;;16.62;47.78
73566;BME280;61846;52.970;-3.168;2023-05-07T00:25:45;100412.59;;;16.69;47.69
73566;BME280;61846;52.970;-3.168;2023-05-07T00:28:10;100413.86;;;16.41;49.35
73566;BME280;61846;52.970;-3.168;2023-05-07T00:30:36;100414.01;;;15.76;49.81
73566;BME280;61846;52.970;-3.168;2023-05-07T00:33:01;100418.39;;;16.17;49.81
73566;BME280;61846;52.970;-3.168;2023-05-07T00:35:28;100419.30;;;15.58;50.90
73566;BME280;61846;52.970;-3.168;2023-05-07T00:37:52;100418.75;;;16.69;48.70
73566;BME280;61846;52.970;-3.168;2023-05-07T00:40:17;100420.63;;;15.67;50.23
73566;BME280;61846;52.970;-3.168;2023-05-07T00:42:43;100419.16;;;16.58;48.33
73566;BME280;61846;52.970;-3.168;2023-05-07T00:45:09;100425.72;;;16.71;47.85
73566;BME280;61846;52.970;-3.168;2023-05-07T00:47:33;100426.20;;;16.80;47.39
73566;BME280;61846;52.970;-3.168;2023-05-07T00:49:59;100426.09;;;16.72;47.65
73566;BME280;61846;52.970;-3.168;2023-05-07T00:52:25;100427.78;;;16.52;47.27
73566;BME280;61846;52.970;-3.168;2023-05-07T00:54:49;100432.69;;;17.00;46.85
73566;BME280;61846;52.970;-3.168;2023-05-07T00:57:15;100436.98;;;17.03;46.22
73566;BME280;61846;52.970;-3.168;2023-05-07T00:59:40;100436.71;;;17.64;45.53
73566;BME280;61846;52.970;-3.168;2023-05-07T01:02:05;100439.34;;;17.64;45.26
73566;BME280;61846;52.970;-3.168;2023-05-07T01:04:31;100445.98;;;17.25;45.44
73566;BME280;61846;52.970;-3.168;2023-05-07T01:06:58;100448.61;;;16.72;46.70
73566;BME280;61846;52.970;-3.168;2023-05-07T01:09:22;100447.21;;;17.32;45.11
73566;BME280;61846;52.970;-3.168;2023-05-07T01:11:47;100446.61;;;17.33;44.26
73566;BME280;61846;52.970;-3.168;2023-05-07T01:14:12;100448.44;;;17.13;44.29
73566;BME280;61846;52.970;-3.168;2023-05-07T01:16:37;100444.85;;;17.38;44.03
73566;BME280;61846;52.970;-3.168;2023-05-07T01:19:03;100446.71;;;17.12;43.45
73566;BME280;61846;52.970;-3.168;2023-05-07T01:21:33;100444.05;;;17.84;43.48
73566;BME280;61846;52.970;-3.168;2023-05-07T01:23:54;100442.07;;;17.42;43.53
73566;BME280;61846;52.970;-3.168;2023-05-07T01:26:19;100445.00;;;17.29;43.96
73566;BME280;61846;52.970;-3.168;2023-05-07T01:28:44;100446.35;;;17.89;42.58
73566;BME280;61846;52.970;-3.168;2023-05-07T01:31:09;100451.46;;;17.97;42.38
73566;BME280;61846;52.970;-3.168;2023-05-07T01:33:36;100453.27;;;17.76;42.51
73566;BME280;61846;52.970;-3.168;2023-05-07T01:36:00;100456.19;;;17.73;42.44
73566;BME280;61846;52.970;-3.168;2023-05-07T01:38:26;100462.56;;;17.87;42.38
73566;BME280;61846;52.970;-3.168;2023-05-07T01:40:51;100462.50;;;17.84;41.85
73566;BME280;61846;52.970;-3.168;2023-05-07T01:43:16;100462.72;;;17.30;41.95
73566;BME280;61846;52.970;-3.168;2023-05-07T01:45:41;100462.50;;;17.69;41.84
73566;BME280;61846;52.970;-3.168;2023-05-07T01:48:07;100463.41;;;18.01;41.64
73566;BME280;61846;52.970;-3.168;2023-05-07T01:50:32;100465.61;;;17.86;41.32
73566;BME280;61846;52.970;-3.168;2023-05-07T01:52:57;100471.81;;;16.84;42.48
73566;BME280;61846;52.970;-3.168;2023-05-07T01:55:23;100473.36;;;16.95;43.11
73566;BME280;61846;52.970;-3.168;2023-05-07T01:57:48;100470.30;;;17.30;41.88
73566;BME280;61846;52.970;-3.168;2023-05-07T02:00:14;100469.90;;;17.66;41.94
73566;BME280;61846;52.970;-3.168;2023-05-07T02:02:39;100474.74;;;17.69;41.82
73566;BME280;61846;52.970;-3.168;2023-05-07T02:05:05;100480.53;;;17.04;41.89
73566;BME280;61846;52.970;-3.168;2023-05-07T02:07:30;100486.21;;;17.05;41.74
73566;BME280;61846;52.970;-3.168;2023-05-07T02:09:55;100488.61;;;17.34;41.80
73566;BME280;61846;52.970;-3.168;2023-05-07T02:12:21;100497.47;;;17.48;41.98
73566;BME280;61846;52.970;-3.168;2023-05-07T02:14:46;100498.61;;;17.45;41.70
73566;BME280;61846;52.970;-3.168;2023-05-07T02:17:12;100499.18;;;17.38;41.59
73566;BME280;61846;52.970;-3.168;2023-05-07T02:19:37;100498.91;;;17.62;41.24
73566;BME280;61846;52.970;-3.168;2023-05-07T02:22:02;100500.51;;;17.09;42.23
73566;BME280;61846;52.970;-3.168;2023-05-07T02:24:28;100506.16;;;17.22;41.74
73566;BME280;61846;52.970;-3.168;2023-05-07T02:26:53;100507.48;;;17.48;42.14
73566;BME280;61846;52.970;-3.168;2023-05-07T02:29:19;100506.72;;;17.37;42.17
73566;BME280;61846;52.970;-3.168;2023-05-07T02:31:44;100510.14;;;17.05;42.20
73566;BME280;61846;52.970;-3.168;2023-05-07T02:34:09;100515.37;;;17.33;41.73
73566;BME280;61846;52.970;-3.168;2023-05-07T02:36:35;100520.09;;;17.03;41.87
73566;BME280;61846;52.970;-3.168;2023-05-07T02:39:01;100525.65;;;17.03;42.07
73566;BME280;61846;52.970;-3.168;2023-05-07T02:41:26;100530.64;;;16.97;41.81
73566;BME280;61846;52.970;-3.168;2023-05-07T02:43:51;100536.91;;;16.79;42.39
73566;BME280;61846;52.970;-3.168;2023-05-07T02:46:17;100543.43;;;16.83;42.21
73566;BME280;61846;52.970;-3.168;2023-05-07T02:48:42;100544.88;;;16.26;42.45
73566;BME280;61846;52.970;-3.168;2023-05-07T02:51:08;100551.75;;;16.63;41.77
73566;BME280;61846;52.970;-3.168;2023-05-07T02:53:33;100550.21;;;15.96;42.63
73566;BME280;61846;52.970;-3.168;2023-05-07T02:56:00;100550.34;;;16.29;41.67
73566;BME280;61846;52.970;-3.168;2023-05-07T02:58:24;100551.17;;;16.07;42.13
73566;BME280;61846;52.970;-3.168;2023-05-07T03:00:50;100554.80;;;16.33;42.31
73566;BME280;61846;52.970;-3.168;2023-05-07T03:03:15;100557.23;;;15.82;42.51
73566;BME280;61846;52.970;-3.168;2023-05-07T03:05:41;100561.91;;;15.84;43.62
73566;BME280;61846;52.970;-3.168;2023-05-07T03:08:07;100560.88;;;15.99;43.49
73566;BME280;61846;52.970;-3.168;2023-05-07T03:10:32;100562.85;;;15.98;42.69
73566;BME280;61846;52.970;-3.168;2023-05-07T03:12:57;100567.05;;;15.87;43.41
73566;BME280;61846;52.970;-3.168;2023-05-07T03:15:23;100571.61;;;15.75;43.12
73566;BME280;61846;52.970;-3.168;2023-05-07T03:17:48;100571.41;;;16.13;42.40
73566;BME280;61846;52.970;-3.168;2023-05-07T03:20:14;100574.13;;;16.22;42.29
73566;BME280;61846;52.970;-3.168;2023-05-07T03:22:39;100573.65;;;15.18;43.05
73566;BME280;61846;52.970;-3.168;2023-05-07T03:25:05;100571.31;;;15.63;43.07
73566;BME280;61846;52.970;-3.168;2023-05-07T03:27:30;100572.43;;;16.16;41.90
73566;BME280;61846;52.970;-3.168;2023-05-07T03:29:55;100579.36;;;15.99;41.80
73566;BME280;61846;52.970;-3.168;2023-05-07T03:32:20;100580.83;;;15.92;41.76
73566;BME280;61846;52.970;-3.168;2023-05-07T03:34:46;100581.32;;;15.81;41.94
73566;BME280;61846;52.970;-3.168;2023-05-07T03:37:11;100580.12;;;15.72;41.75
73566;BME280;61846;52.970;-3.168;2023-05-07T03:39:37;100576.03;;;15.37;42.06
73566;BME280;61846;52.970;-3.168;2023-05-07T03:42:03;100573.81;;;15.20;42.59
73566;BME280;61846;52.970;-3.168;2023-05-07T03:44:28;100569.87;;;14.79;43.42
73566;BME280;61846;52.970;-3.168;2023-05-07T03:46:53;100568.10;;;14.01;44.96
73566;BME280;61846;52.970;-3.168;2023-05-07T03:49:19;100570.86;;;12.70;47.52
73566;BME280;61846;52.970;-3.168;2023-05-07T03:51:44;100578.73;;;12.29;49.08
73566;BME280;61846;52.970;-3.168;2023-05-07T03:54:09;100581.29;;;12.02;49.31
73566;BME280;61846;52.970;-3.168;2023-05-07T03:56:35;100578.77;;;11.93;49.98
73566;BME280;61846;52.970;-3.168;2023-05-07T03:59:01;100578.83;;;12.89;48.44
73566;BME280;61846;52.970;-3.168;2023-05-07T04:01:26;100572.58;;;13.76;45.99
73566;BME280;61846;52.970;-3.168;2023-05-07T04:03:51;100570.53;;;13.65;46.34
73566;BME280;61846;52.970;-3.168;2023-05-07T04:06:16;100572.10;;;13.53;46.56
73566;BME280;61846;52.970;-3.168;2023-05-07T04:08:42;100572.30;;;13.48;46.07
73566;BME280;61846;52.970;-3.168;2023-05-07T04:11:07;100569.26;;;13.90;45.07
73566;BME280;61846;52.970;-3.168;2023-05-07T04:13:33;100567.09;;;14.22;44.22
73566;BME280;61846;52.970;-3.168;2023-05-07T04:16:00;100565.98;;;14.14;44.22
73566;BME280;61846;52.970;-3.168;2023-05-07T04:18:24;100566.61;;;14.27;43.84
73566;BME280;61846;52.970;-3.168;2023-05-07T04:20:49;100569.12;;;13.86;44.24
73566;BME280;61846;52.970;-3.168;2023-05-07T04:23:14;100575.01;;;13.90;44.28
73566;BME280;61846;52.970;-3.168;2023-05-07T04:25:40;100578.47;;;13.10;45.62
73566;BME280;61846;52.970;-3.168;2023-05-07T04:28:05;100575.59;;;13.80;44.62
73566;BME280;61846;52.970;-3.168;2023-05-07T04:30:31;100576.88;;;13.85;44.62
73566;BME280;61846;52.970;-3.168;2023-05-07T04:32:56;100575.99;;;14.27;43.65
73566;BME280;61846;52.970;-3.168;2023-05-07T04:35:22;100577.92;;;14.44;43.69
73566;BME280;61846;52.970;-3.168;2023-05-07T04:37:47;100578.20;;;14.19;43.98
73566;BME280;61846;52.970;-3.168;2023-05-07T04:40:13;100583.30;;;14.32;43.50
73566;BME280;61846;52.970;-3.168;2023-05-07T04:42:38;100583.49;;;14.14;44.11
73566;BME280;61846;52.970;-3.168;2023-05-07T04:45:05;100588.51;;;14.15;44.47
73566;BME280;61846;52.970;-3.168;2023-05-07T04:47:29;100593.83;;;14.08;44.55
73566;BME280;61846;52.970;-3.168;2023-05-07T04:49:54;100598.37;;;13.93;45.59
73566;BME280;61846;52.970;-3.168;2023-05-07T04:52:19;100591.82;;;13.97;44.96
73566;BME280;61846;52.970;-3.168;2023-05-07T04:54:45;100590.37;;;13.93;44.98
73566;BME280;61846;52.970;-3.168;2023-05-07T04:57:10;100590.68;;;14.25;45.05
73566;BME280;61846;52.970;-3.168;2023-05-07T04:59:35;100587.78;;;13.72;45.46
73566;BME280;61846;52.970;-3.168;2023-05-07T05:02:01;100587.17;;;13.99;45.54
73566;BME280;61846;52.970;-3.168;2023-05-07T05:04:27;100590.31;;;14.19;45.51
73566;BME280;61846;52.970;-3.168;2023-05-07T05:06:52;100593.69;;;14.36;44.62
73566;BME280;61846;52.970;-3.168;2023-05-07T05:09:17;100598.18;;;14.40;44.37
73566;BME280;61846;52.970;-3.168;2023-05-07T05:11:43;100600.79;;;14.40;44.01
73566;BME280;61846;52.970;-3.168;2023-05-07T05:14:08;100609.00;;;13.81;45.44
73566;BME280;61846;52.970;-3.168;2023-05-07T05:16:34;100615.20;;;13.40;46.22
73566;BME280;61846;52.970;-3.168;2023-05-07T05:19:00;100616.16;;;13.40;46.05
73566;BME280;61846;52.970;-3.168;2023-05-07T05:21:25;100608.45;;;14.11;44.84
73566;BME280;61846;52.970;-3.168;2023-05-07T05:23:50;100606.93;;;14.00;45.00
73566;BME280;61846;52.970;-3.168;2023-05-07T05:26:16;100607.09;;;14.70;44.52
73566;BME280;61846;52.970;-3.168;2023-05-07T05:28:41;100607.80;;;14.66;44.43
73566;BME280;61846;52.970;-3.168;2023-05-07T05:31:07;100608.75;;;14.18;44.83
73566;BME280;61846;52.970;-3.168;2023-05-07T05:33:32;100613.96;;;13.78;45.58
73566;BME280;61846;52.970;-3.168;2023-05-07T05:35:58;100614.13;;;14.41;44.73
73566;BME280;61846;52.970;-3.168;2023-05-07T05:38:23;100618.21;;;14.72;44.18
73566;BME280;61846;52.970;-3.168;2023-05-07T05:40:49;100622.30;;;14.74;44.12
73566;BME280;61846;52.970;-3.168;2023-05-07T05:43:14;100622.13;;;14.94;44.02
73566;BME280;61846;52.970;-3.168;2023-05-07T05:45:40;100618.85;;;14.81;44.09
73566;BME280;61846;52.970;-3.168;2023-05-07T05:48:05;100618.88;;;14.27;45.17
73566;BME280;61846;52.970;-3.168;2023-05-07T05:50:31;100623.11;;;14.39;44.97
73566;BME280;61846;52.970;-3.168;2023-05-07T05:52:56;100625.00;;;14.56;44.68
73566;BME280;61846;52.970;-3.168;2023-05-07T05:55:21;100625.86;;;14.54;45.07
73566;BME280;61846;52.970;-3.168;2023-05-07T05:57:47;100626.32;;;14.53;45.25
73566;BME280;61846;52.970;-3.168;2023-05-07T06:00:13;100628.85;;;14.69;45.24
73566;BME280;61846;52.970;-3.168;2023-05-07T06:02:38;100628.55;;;14.84;45.12
73566;BME280;61846;52.970;-3.168;2023-05-07T06:05:04;100635.38;;;14.80;44.78
73566;BME280;61846;52.970;-3.168;2023-05-07T06:07:29;100638.22;;;14.81;44.97
73566;BME280;61846;52.970;-3.168;2023-05-07T06:09:54;100641.86;;;14.79;44.74
73566;BME280;61846;52.970;-3.168;2023-05-07T06:12:20;100637.59;;;14.88;44.29
73566;BME280;61846;52.970;-3.168;2023-05-07T06:14:45;100637.19;;;14.87;44.89
73566;BME280;61846;52.970;-3.168;2023-05-07T06:17:10;100636.76;;;14.80;44.70
73566;BME280;61846;52.970;-3.168;2023-05-07T06:19:36;100637.66;;;14.66;44.67
73566;BME280;61846;52.970;-3.168;2023-05-07T06:22:02;100638.47;;;15.02;44.56
73566;BME280;61846;52.970;-3.168;2023-05-07T06:24:27;100637.01;;;14.50;45.18
73566;BME280;61846;52.970;-3.168;2023-05-07T06:26:52;100636.38;;;15.78;44.24
73566;BME280;61846;52.970;-3.168;2023-05-07T06:29:18;100633.44;;;15.33;44.13
73566;BME280;61846;52.970;-3.168;2023-05-07T06:31:43;100635.85;;;14.94;44.51
73566;BME280;61846;52.970;-3.168;2023-05-07T06:34:09;100635.69;;;14.46;45.79
73566;BME280;61846;52.970;-3.168;2023-05-07T06:36:34;100637.54;;;14.91;45.38
73566;BME280;61846;52.970;-3.168;2023-05-07T06:38:59;100637.86;;;14.83;45.55
73566;BME280;61846;52.970;-3.168;2023-05-07T06:41:25;100637.69;;;14.88;45.69
73566;BME280;61846;52.970;-3.168;2023-05-07T06:43:50;100635.87;;;15.30;45.15
73566;BME280;61846;52.970;-3.168;2023-05-07T06:46:16;100636.82;;;15.12;44.99
73566;BME280;61846;52.970;-3.168;2023-05-07T06:48:41;100632.39;;;15.89;44.41
73566;BME280;61846;52.970;-3.168;2023-05-07T06:51:06;100628.61;;;16.18;43.68
73566;BME280;61846;52.970;-3.168;2023-05-07T06:53:32;100629.49;;;16.19;43.96
73566;BME280;61846;52.970;-3.168;2023-05-07T06:55:57;100627.57;;;16.22;43.55
73566;BME280;61846;52.970;-3.168;2023-05-07T06:58:23;100629.37;;;16.38;42.70
73566;BME280;61846;52.970;-3.168;2023-05-07T07:00:48;100630.38;;;16.48;43.19
73566;BME280;61846;52.970;-3.168;2023-05-07T07:03:14;100633.49;;;16.03;43.22
73566;BME280;61846;52.970;-3.168;2023-05-07T07:05:40;100636.81;;;15.78;44.65
73566;BME280;61846;52.970;-3.168;2023-05-07T07:08:05;100642.07;;;16.42;44.00
73566;BME280;61846;52.970;-3.168;2023-05-07T07:10:30;100639.83;;;16.60;43.44
73566;BME280;61846;52.970;-3.168;2023-05-07T07:12:55;100642.08;;;16.19;44.60
73566;BME280;61846;52.970;-3.168;2023-05-07T07:15:21;100643.97;;;16.07;44.47
73566;BME280;61846;52.970;-3.168;2023-05-07T07:17:47;100649.27;;;16.25;43.97
73566;BME280;61846;52.970;-3.168;2023-05-07T07:20:13;100653.69;;;16.78;43.59
73566;BME280;61846;52.970;-3.168;2023-05-07T07:22:37;100658.03;;;16.89;43.79
73566;BME280;61846;52.970;-3.168;2023-05-07T07:25:03;100661.32;;;16.61;43.86
73566;BME280;61846;52.970;-3.168;2023-05-07T07:27:28;100663.33;;;16.89;43.36
73566;BME280;61846;52.970;-3.168;2023-05-07T07:29:54;100665.34;;;16.64;44.73
73566;BME280;61846;52.970;-3.168;2023-05-07T07:32:19;100664.79;;;17.04;43.90
73566;BME280;61846;52.970;-3.168;2023-05-07T07:34:45;100663.13;;;16.87;43.20
73566;BME280;61846;52.970;-3.168;2023-05-07T07:37:10;100667.76;;;16.59;43.54
73566;BME280;61846;52.970;-3.168;2023-05-07T07:39:35;100667.64;;;15.74;44.96
73566;BME280;61846;52.970;-3.168;2023-05-07T07:42:01;100670.18;;;16.55;43.46
73566;BME280;61846;52.970;-3.168;2023-05-07T07:44:27;100672.99;;;16.47;45.54
73566;BME280;61846;52.970;-3.168;2023-05-07T07:46:52;100680.59;;;15.54;45.56
73566;BME280;61846;52.970;-3.168;2023-05-07T07:49:17;100682.88;;;16.05;44.56
73566;BME280;61846;52.970;-3.168;2023-05-07T07:51:43;100682.56;;;16.37;43.96
73566;BME280;61846;52.970;-3.168;2023-05-07T07:54:08;100680.05;;;16.75;44.45
73566;BME280;61846;52.970;-3.168;2023-05-07T07:56:34;100682.72;;;16.28;44.78
73566;BME280;61846;52.970;-3.168;2023-05-07T07:58:59;100685.05;;;15.31;45.29
73566;BME280;61846;52.970;-3.168;2023-05-07T08:01:24;100685.26;;;16.41;43.97
73566;BME280;61846;52.970;-3.168;2023-05-07T08:03:50;100685.37;;;16.32;44.84
73566;BME280;61846;52.970;-3.168;2023-05-07T08:06:15;100686.79;;;16.50;42.93
73566;BME280;61846;52.970;-3.168;2023-05-07T08:08:41;100687.88;;;17.12;43.40
73566;BME280;61846;52.970;-3.168;2023-05-07T08:11:06;100687.87;;;16.84;43.21
73566;BME280;61846;52.970;-3.168;2023-05-07T08:13:31;100684.11;;;16.01;43.27
73566;BME280;61846;52.970;-3.168;2023-05-07T08:15:57;100690.85;;;16.75;44.46
73566;BME280;61846;52.970;-3.168;2023-05-07T08:18:23;100690.47;;;17.14;42.71
73566;BME280;61846;52.970;-3.168;2023-05-07T08:20:48;100694.84;;;17.87;41.28
73566;BME280;61846;52.970;-3.168;2023-05-07T08:23:13;100696.43;;;17.79;42.63
73566;BME280;61846;52.970;-3.168;2023-05-07T08:25:38;100698.34;;;17.23;43.61
73566;BME280;61846;52.970;-3.168;2023-05-07T08:28:04;100701.17;;;17.94;40.97
73566;BME280;61846;52.970;-3.168;2023-05-07T08:30:29;100705.74;;;17.95;41.02
73566;BME280;61846;52.970;-3.168;2023-05-07T08:32:54;100707.20;;;17.35;42.32
73566;BME280;61846;52.970;-3.168;2023-05-07T08:35:20;100706.41;;;17.55;41.21
73566;BME280;61846;52.970;-3.168;2023-05-07T08:37:45;100708.09;;;17.89;41.08
73566;BME280;61846;52.970;-3.168;2023-05-07T08:40:11;100709.23;;;17.92;42.46
73566;BME280;61846;52.970;-3.168;2023-05-07T08:42:36;100710.48;;;17.84;41.82
73566;BME280;61846;52.970;-3.168;2023-05-07T08:45:03;100712.44;;;18.15;41.01
73566;BME280;61846;52.970;-3.168;2023-05-07T08:47:30;100713.75;;;17.82;39.29
73566;BME280;61846;52.970;-3.168;2023-05-07T08:49:53;100708.70;;;18.68;39.81
73566;BME280;61846;52.970;-3.168;2023-05-07T08:52:17;100711.09;;;18.61;38.86
73566;BME280;61846;52.970;-3.168;2023-05-07T08:54:43;100712.89;;;18.18;39.70
73566;BME280;61846;52.970;-3.168;2023-05-07T08:57:08;100719.07;;;18.90;40.36
73566;BME280;61846;52.970;-3.168;2023-05-07T08:59:34;100722.95;;;18.37;40.50
73566;BME280;61846;52.970;-3.168;2023-05-07T09:01:59;100721.62;;;18.82;37.81
73566;BME280;61846;52.970;-3.168;2023-05-07T09:04:24;100722.32;;;18.98;36.74
73566;BME280;61846;52.970;-3.168;2023-05-07T09:06:50;100724.26;;;18.57;38.97
73566;BME280;61846;52.970;-3.168;2023-05-07T09:09:17;100721.22;;;18.79;39.62
73566;BME280;61846;52.970;-3.168;2023-05-07T09:11:40;100725.58;;;18.88;40.14
73566;BME280;61846;52.970;-3.168;2023-05-07T09:14:05;100729.02;;;18.66;40.52
73566;BME280;61846;52.970;-3.168;2023-05-07T09:16:31;100729.87;;;18.67;39.21
73566;BME280;61846;52.970;-3.168;2023-05-07T09:18:57;100725.12;;;19.01;38.91
73566;BME280;61846;52.970;-3.168;2023-05-07T09:21:22;100725.35;;;19.74;38.75
73566;BME280;61846;52.970;-3.168;2023-05-07T09:23:48;100730.21;;;19.63;39.84
73566;BME280;61846;52.970;-3.168;2023-05-07T09:26:12;100732.64;;;20.19;38.10
73566;BME280;61846;52.970;-3.168;2023-05-07T09:28:39;100727.54;;;19.74;38.97
73566;BME280;61846;52.970;-3.168;2023-05-07T09:31:04;100732.45;;;20.17;36.91
73566;BME280;61846;52.970;-3.168;2023-05-07T09:33:28;100732.18;;;20.14;36.59
73566;BME280;61846;52.970;-3.168;2023-05-07T09:35:54;100728.13;;;20.18;38.28
73566;BME280;61846;52.970;-3.168;2023-05-07T09:38:19;100722.61;;;20.28;36.93
73566;BME280;61846;52.970;-3.168;2023-05-07T09:40:44;100720.36;;;19.97;38.61
73566;BME280;61846;52.970;-3.168;2023-05-07T09:43:10;100721.98;;;20.44;37.42
73566;BME280;61846;52.970;-3.168;2023-05-07T09:45:35;100725.53;;;19.69;39.17
73566;BME280;61846;52.970;-3.168;2023-05-07T09:48:01;100721.29;;;20.26;39.16
73566;BME280;61846;52.970;-3.168;2023-05-07T09:50:27;100716.55;;;20.64;37.69
73566;BME280;61846;52.970;-3.168;2023-05-07T09:52:51;100716.52;;;20.77;36.00
73566;BME280;61846;52.970;-3.168;2023-05-07T09:55:16;100715.06;;;20.83;36.79
73566;BME280;61846;52.970;-3.168;2023-05-07T09:57:42;100716.88;;;20.60;36.57
73566;BME280;61846;52.970;-3.168;2023-05-07T10:00:08;100722.52;;;21.08;35.79
73566;BME280;61846;52.970;-3.168;2023-05-07T10:02:33;100726.49;;;20.76;35.59
73566;BME280;61846;52.970;-3.168;2023-05-07T10:04:58;100730.59;;;21.14;36.74
73566;BME280;61846;52.970;-3.168;2023-05-07T10:07:23;100732.94;;;20.99;35.24
73566;BME280;61846;52.970;-3.168;2023-05-07T10:09:49;100730.65;;;21.06;36.37
73566;BME280;61846;52.970;-3.168;2023-05-07T10:12:13;100729.68;;;21.54;36.09
73566;BME280;61846;52.970;-3.168;2023-05-07T10:14:39;100726.50;;;21.37;34.31
73566;BME280;61846;52.970;-3.168;2023-05-07T10:17:04;100726.12;;;21.44;35.85
73566;BME280;61846;52.970;-3.168;2023-05-07T10:19:30;100727.04;;;22.25;34.37
73566;BME280;61846;52.970;-3.168;2023-05-07T10:21:58;100725.28;;;22.08;32.57
73566;BME280;61846;52.970;-3.168;2023-05-07T10:24:23;100727.64;;;22.41;33.88
73566;BME280;61846;52.970;-3.168;2023-05-07T10:26:49;100724.42;;;21.83;34.04
73566;BME280;61846;52.970;-3.168;2023-05-07T10:29:16;100728.97;;;21.78;34.70
73566;BME280;61846;52.970;-3.168;2023-05-07T10:31:49;100733.77;;;22.27;34.71
73566;BME280;61846;52.970;-3.168;2023-05-07T10:34:02;100729.88;;;21.86;33.08
73566;BME280;61846;52.970;-3.168;2023-05-07T10:36:26;100727.43;;;21.74;35.22
73566;BME280;61846;52.970;-3.168;2023-05-07T10:38:52;100727.73;;;22.15;34.84
73566;BME280;61846;52.970;-3.168;2023-05-07T10:41:17;100724.37;;;21.71;34.67
73566;BME280;61846;52.970;-3.168;2023-05-07T10:43:43;100724.63;;;21.52;33.75
73566;BME280;61846;52.970;-3.168;2023-05-07T10:46:13;100725.35;;;22.79;33.18
73566;BME280;61846;52.970;-3.168;2023-05-07T10:48:33;100726.34;;;22.63;31.93
73566;BME280;61846;52.970;-3.168;2023-05-07T10:53:25;100727.86;;;23.02;32.51
73566;BME280;61846;52.970;-3.168;2023-05-07T10:55:50;100729.01;;;23.35;31.51
73566;BME280;61846;52.970;-3.168;2023-05-07T10:58:23;100729.69;;;23.24;30.78
73566;BME280;61846;52.970;-3.168;2023-05-07T11:00:41;100728.76;;;24.07;32.03
73566;BME280;61846;52.970;-3.168;2023-05-07T11:03:05;100736.13;;;22.70;31.92
73566;BME280;61846;52.970;-3.168;2023-05-07T11:05:31;100734.42;;;23.69;30.89
73566;BME280;61846;52.970;-3.168;2023-05-07T11:07:56;100738.02;;;23.05;33.46
73566;BME280;61846;52.970;-3.168;2023-05-07T11:10:20;100732.72;;;22.79;33.72
73566;BME280;61846;52.970;-3.168;2023-05-07T11:12:48;100730.38;;;23.61;34.21
73566;BME280;61846;52.970;-3.168;2023-05-07T11:15:11;100727.46;;;24.55;28.59
73566;BME280;61846;52.970;-3.168;2023-05-07T11:20:02;100730.62;;;23.78;29.53
73566;BME280;61846;52.970;-3.168;2023-05-07T11:22:36;100731.52;;;24.23;29.45
73566;BME280;61846;52.970;-3.168;2023-05-07T11:24:52;100733.43;;;24.53;30.40
73566;BME280;61846;52.970;-3.168;2023-05-07T11:27:23;100729.12;;;24.45;30.23
73566;BME280;61846;52.970;-3.168;2023-05-07T11:29:46;100730.19;;;24.75;31.02
73566;BME280;61846;52.970;-3.168;2023-05-07T11:32:08;100732.69;;;23.95;31.29
73566;BME280;61846;52.970;-3.168;2023-05-07T11:34:33;100734.50;;;24.69;31.16
73566;BME280;61846;52.970;-3.168;2023-05-07T11:36:58;100737.09;;;23.85;30.34
73566;BME280;61846;52.970;-3.168;2023-05-07T11:39:25;100739.17;;;24.00;28.88
73566;BME280;61846;52.970;-3.168;2023-05-07T11:41:49;100742.42;;;23.74;29.95
73566;BME280;61846;52.970;-3.168;2023-05-07T11:44:14;100748.41;;;23.30;29.24
73566;BME280;61846;52.970;-3.168;2023-05-07T11:46:43;100755.74;;;23.78;30.26
73566;BME280;61846;52.970;-3.168;2023-05-07T11:49:05;100755.66;;;22.94;31.35
73566;BME280;61846;52.970;-3.168;2023-05-07T11:51:30;100753.17;;;22.88;31.65
73566;BME280;61846;52.970;-3.168;2023-05-07T11:53:55;100754.10;;;22.48;32.00
73566;BME280;61846;52.970;-3.168;2023-05-07T11:56:20;100752.41;;;22.98;31.99
73566;BME280;61846;52.970;-3.168;2023-05-07T11:58:47;100750.70;;;22.35;32.64
73566;BME280;61846;52.970;-3.168;2023-05-07T12:01:12;100755.90;;;21.87;33.27
73566;BME280;61846;52.970;-3.168;2023-05-07T12:03:37;100753.92;;;22.16;33.01
73566;BME280;61846;52.970;-3.168;2023-05-07T12:06:02;100754.80;;;21.75;33.47
73566;BME280;61846;52.970;-3.168;2023-05-07T12:08:27;100756.59;;;21.92;33.99
73566;BME280;61846;52.970;-3.168;2023-05-07T12:10:53;100760.25;;;22.73;32.36
73566;BME280;61846;52.970;-3.168;2023-05-07T12:13:18;100759.91;;;22.42;32.72
73566;BME280;61846;52.970;-3.168;2023-05-07T12:15:43;100760.86;;;21.90;32.72
73566;BME280;61846;52.970;-3.168;2023-05-07T12:18:08;100760.96;;;21.95;33.67
73566;BME280;61846;52.970;-3.168;2023-05-07T12:20:34;100763.52;;;22.12;33.73
73566;BME280;61846;52.970;-3.168;2023-05-07T12:22:59;100760.86;;;21.88;33.53
73566;BME280;61846;52.970;-3.168;2023-05-07T12:25:24;100762.14;;;22.12;33.09
73566;BME280;61846;52.970;-3.168;2023-05-07T12:27:52;100763.90;;;22.28;33.18
73566;BME280;61846;52.970;-3.168;2023-05-07T12:30:14;100765.83;;;22.19;33.16
73566;BME280;61846;52.970;-3.168;2023-05-07T12:32:40;100771.48;;;22.79;32.70
73566;BME280;61846;52.970;-3.168;2023-05-07T12:35:06;100771.43;;;22.16;32.39